Time,TemperatureF,DewpointF,PressureIn,WindDirection,WindDirectionDegrees,WindSpeedMPH,WindSpeedGustMPH,Humidity,HourlyPrecipIn,Conditions,Clouds,dailyrainin,SoftwareType,DateUTC
2013-05-19 00:01:00,64.4,59.8,30.15,South,179,0.0,0.0,85,0.00,,OVC090,0.00,VWS V14.00,2013-05-19 04:01:00,
2013-05-19 00:02:00,64.4,59.8,30.15,WSW,242,0.0,0.0,85,0.00,,OVC110,0.00,VWS V14.00,2013-05-19 04:02:00,
2013-05-19 00:03:00,64.4,59.8,30.15,West,273,0.0,2.7,85,0.00,,OVC110,0.00,VWS V14.00,2013-05-19 04:03:00,
2013-05-19 00:08:00,64.2,60.0,30.15,WNW,297,0.0,3.2,86,0.00,,OVC110,0.00,VWS V14.00,2013-05-19 04:08:00,
2013-05-19 00:13:00,64.2,60.3,30.15,WNW,297,0.0,0.0,87,0.00,,OVC110,0.00,VWS V14.00,2013-05-19 04:13:00,
2013-05-19 00:18:00,64.0,60.4,30.15,WNW,297,0.0,0.0,88,0.00,,OVC110,0.00,VWS V14.00,2013-05-19 04:18:00,
2013-05-19 00:23:00,63.8,60.5,30.15,WNW,297,0.0,0.0,89,0.00,,OVC110,0.00,VWS V14.00,2013-05-19 04:23:00,
2013-05-19 00:28:00,63.8,60.5,30.15,WNW,297,0.0,0.0,89,0.00,,OVC110,0.00,VWS V14.00,2013-05-19 04:28:00,
2013-05-19 00:34:00,63.8,60.9,30.15,WNW,297,0.0,0.0,90,0.00,,OVC110,0.00,VWS V14.00,2013-05-19 04:34:00,
2013-05-19 00:39:00,63.7,60.7,30.15,WNW,297,0.0,0.0,90,0.00,,OVC110,0.00,VWS V14.00,2013-05-19 04:39:00,
2013-05-19 00:44:00,63.8,60.9,30.15,SSE,164,0.0,2.7,90,0.00,,OVC110,0.00,VWS V14.00,2013-05-19 04:44:00,
2013-05-19 00:49:00,63.7,60.7,30.15,SSE,164,2.5,2.7,90,0.00,,OVC055,0.00,VWS V14.00,2013-05-19 04:49:00,
2013-05-19 00:54:00,63.5,60.8,30.15,South,184,0.0,0.0,91,0.01,,OVC055,0.01,VWS V14.00,2013-05-19 04:54:00,
2013-05-19 00:59:00,63.3,60.9,30.15,South,184,0.0,0.0,92,0.01,,OVC055,0.01,VWS V14.00,2013-05-19 04:59:00,
2013-05-19 01:04:00,63.3,61.2,30.15,NNW,337,0.0,0.0,93,0.01,,OVC055,0.01,VWS V14.00,2013-05-19 05:04:00,
2013-05-19 01:09:00,63.3,61.2,30.15,NNW,337,0.0,0.0,93,0.01,,OVC055,0.01,VWS V14.00,2013-05-19 05:09:00,
2013-05-19 01:14:00,63.1,61.0,30.15,NNW,337,0.0,0.0,93,0.01,,OVC055,0.01,VWS V14.00,2013-05-19 05:14:00,
2013-05-19 01:19:00,63.1,61.4,30.12,NNW,337,0.0,0.0,94,0.01,,OVC055,0.01,VWS V14.00,2013-05-19 05:19:00,
2013-05-19 01:24:00,63.1,61.4,30.12,NNW,337,0.0,0.0,94,0.01,,OVC055,0.01,VWS V14.00,2013-05-19 05:24:00,
2013-05-19 01:30:00,63.1,61.4,30.12,NNW,337,0.0,0.0,94,0.01,,OVC055,0.01,VWS V14.00,2013-05-19 05:30:00,
2013-05-19 01:35:00,63.1,61.4,30.12,NNW,337,0.0,0.0,94,0.01,,OVC050,0.01,VWS V14.00,2013-05-19 05:35:00,
2013-05-19 01:40:00,62.9,61.2,30.12,NNW,337,0.0,0.0,94,0.01,,OVC050,0.01,VWS V14.00,2013-05-19 05:40:00,
2013-05-19 01:45:00,62.9,61.2,30.12,SE,130,0.0,0.0,94,0.01,,OVC050,0.01,VWS V14.00,2013-05-19 05:45:00,
2013-05-19 01:50:00,62.9,61.2,30.12,SW,234,0.0,0.0,94,0.01,,OVC016,0.01,VWS V14.00,2013-05-19 05:50:00,
2013-05-19 01:55:00,62.7,61.3,30.12,SW,234,0.0,0.0,95,0.00,,OVC016,0.01,VWS V14.00,2013-05-19 05:55:00,
2013-05-19 02:00:00,62.7,61.3,30.12,SW,234,0.0,0.0,95,0.00,,OVC016,0.01,VWS V14.00,2013-05-19 06:00:00,
2013-05-19 02:05:00,62.9,61.5,30.12,South,182,0.0,2.7,95,0.00,,OVC013,0.01,VWS V14.00,2013-05-19 06:05:00,
2013-05-19 02:10:00,62.7,61.0,30.12,South,183,0.0,0.0,94,0.00,,OVC013,0.01,VWS V14.00,2013-05-19 06:10:00,
2013-05-19 02:15:00,62.7,61.3,30.12,SE,138,0.0,0.0,95,0.00,,OVC013,0.01,VWS V14.00,2013-05-19 06:15:00,
2013-05-19 02:20:00,62.7,61.3,30.12,SE,131,0.0,0.0,95,0.00,,OVC013,0.01,VWS V14.00,2013-05-19 06:20:00,
2013-05-19 02:25:00,62.7,61.3,30.12,SW,216,0.0,3.2,95,0.00,,OVC013,0.01,VWS V14.00,2013-05-19 06:25:00,
2013-05-19 02:30:00,62.5,61.1,30.12,SSE,156,0.0,0.0,95,0.00,,OVC013,0.01,VWS V14.00,2013-05-19 06:30:00,
2013-05-19 02:36:00,62.5,61.1,30.12,SSE,156,0.0,0.0,95,0.00,,OVC013,0.01,VWS V14.00,2013-05-19 06:36:00,
2013-05-19 02:41:00,62.7,61.3,30.12,SSE,156,0.0,0.0,95,0.00,,OVC013,0.01,VWS V14.00,2013-05-19 06:41:00,
2013-05-19 02:46:00,62.5,61.1,30.12,SSW,204,0.0,0.0,95,0.00,,OVC013,0.01,VWS V14.00,2013-05-19 06:46:00,
2013-05-19 02:51:00,62.5,61.4,30.12,SSW,204,0.0,0.0,96,0.00,,OVC013,0.01,VWS V14.00,2013-05-19 06:51:00,
2013-05-19 02:56:00,62.5,61.4,30.12,NNE,15,0.0,0.0,96,0.00,,OVC013,0.01,VWS V14.00,2013-05-19 06:56:00,
2013-05-19 03:01:00,62.4,61.2,30.12,NNE,15,0.0,0.0,96,0.00,,OVC017,0.01,VWS V14.00,2013-05-19 07:01:00,
2013-05-19 03:06:00,62.5,61.4,30.12,North,357,0.0,3.2,96,0.00,,OVC017,0.01,VWS V14.00,2013-05-19 07:06:00,
2013-05-19 03:11:00,62.5,61.4,30.12,NNE,14,0.0,0.0,96,0.00,,OVC017,0.01,VWS V14.00,2013-05-19 07:11:00,
2013-05-19 03:16:00,62.4,61.5,30.12,North,353,0.0,0.0,97,0.00,,OVC017,0.01,VWS V14.00,2013-05-19 07:16:00,
2013-05-19 03:21:00,62.5,62.0,30.12,ENE,76,0.0,0.0,98,0.01,,OVC017,0.02,VWS V14.00,2013-05-19 07:21:00,
2013-05-19 03:27:00,62.4,61.8,30.12,NNW,334,0.0,0.0,98,0.01,,OVC017,0.02,VWS V14.00,2013-05-19 07:27:00,
2013-05-19 03:32:00,62.4,61.8,30.12,WSW,237,0.0,0.0,98,0.01,,OVC017,0.02,VWS V14.00,2013-05-19 07:32:00,
2013-05-19 03:37:00,62.4,61.8,30.12,WSW,237,0.0,0.0,98,0.01,,OVC017,0.02,VWS V14.00,2013-05-19 07:37:00,
2013-05-19 03:42:00,62.4,61.8,30.12,WSW,237,0.0,0.0,98,0.01,,OVC017,0.02,VWS V14.00,2013-05-19 07:42:00,
2013-05-19 03:47:00,62.4,61.5,30.12,WSW,237,0.0,0.0,97,0.01,,OVC009,0.02,VWS V14.00,2013-05-19 07:47:00,
2013-05-19 03:52:00,62.4,61.5,30.12,WSW,237,0.0,0.0,97,0.01,,OVC009,0.02,VWS V14.00,2013-05-19 07:52:00,
2013-05-19 03:57:00,62.2,61.3,30.12,SSE,163,0.0,0.0,97,0.01,,OVC009,0.02,VWS V14.00,2013-05-19 07:57:00,
2013-05-19 04:02:00,62.2,61.3,30.12,SSE,163,0.0,0.0,97,0.01,,OVC009,0.02,VWS V14.00,2013-05-19 08:02:00,
2013-05-19 04:07:00,62.2,61.3,30.12,SSE,163,0.0,0.0,97,0.01,,OVC009,0.02,VWS V14.00,2013-05-19 08:07:00,
2013-05-19 04:13:00,62.2,61.3,30.12,South,177,0.0,0.0,97,0.01,,OVC009,0.02,VWS V14.00,2013-05-19 08:13:00,
2013-05-19 04:18:00,62.2,61.3,30.12,South,177,0.0,0.0,97,0.00,,OVC009,0.02,VWS V14.00,2013-05-19 08:18:00,
2013-05-19 04:22:00,62.2,61.3,30.12,South,177,0.0,0.0,97,0.00,,OVC009,0.02,VWS V14.00,2013-05-19 08:22:00,
2013-05-19 04:28:00,62.0,61.1,30.12,South,177,0.0,0.0,97,0.00,,OVC009,0.02,VWS V14.00,2013-05-19 08:28:00,
2013-05-19 04:33:00,62.0,61.1,30.12,South,177,0.0,0.0,97,0.00,,OVC009,0.02,VWS V14.00,2013-05-19 08:33:00,
2013-05-19 04:38:00,62.2,61.6,30.12,South,177,0.0,0.0,98,0.00,,OVC009,0.02,VWS V14.00,2013-05-19 08:38:00,
2013-05-19 04:43:00,62.2,61.6,30.12,South,177,0.0,0.0,98,0.00,,OVC009,0.02,VWS V14.00,2013-05-19 08:43:00,
2013-05-19 04:48:00,62.2,61.6,30.12,South,177,0.0,0.0,98,0.00,,OVC017,0.02,VWS V14.00,2013-05-19 08:48:00,
2013-05-19 04:53:00,62.2,61.6,30.12,West,277,0.0,0.0,98,0.00,,OVC017,0.02,VWS V14.00,2013-05-19 08:53:00,
2013-05-19 04:58:00,62.2,61.6,30.12,West,278,0.0,0.0,98,0.00,,OVC017,0.02,VWS V14.00,2013-05-19 08:58:00,
2013-05-19 05:03:00,62.2,61.6,30.12,West,278,0.0,0.0,98,0.00,,OVC017,0.02,VWS V14.00,2013-05-19 09:03:00,
2013-05-19 05:08:00,62.2,61.6,30.12,SSE,157,2.5,6.4,98,0.00,,OVC017,0.02,VWS V14.00,2013-05-19 09:08:00,
2013-05-19 05:14:00,62.2,61.3,30.12,ESE,118,0.0,2.7,97,0.00,,OVC017,0.02,VWS V14.00,2013-05-19 09:14:00,
2013-05-19 05:19:00,62.2,61.3,30.12,ESE,118,0.0,0.0,97,0.00,,OVC017,0.02,VWS V14.00,2013-05-19 09:19:00,
2013-05-19 05:24:00,62.2,61.3,30.12,ESE,118,0.0,0.0,97,0.00,,OVC017,0.02,VWS V14.00,2013-05-19 09:24:00,
2013-05-19 05:29:00,62.0,61.1,30.12,ESE,118,0.0,0.0,97,0.00,,OVC017,0.02,VWS V14.00,2013-05-19 09:29:00,
2013-05-19 05:34:00,62.0,61.4,30.12,ESE,118,0.0,0.0,98,0.00,,OVC017,0.02,VWS V14.00,2013-05-19 09:34:00,
2013-05-19 05:39:00,62.0,61.4,30.12,ESE,118,0.0,0.0,98,0.00,,OVC017,0.02,VWS V14.00,2013-05-19 09:39:00,
2013-05-19 05:44:00,62.0,61.4,30.12,ESE,118,0.0,0.0,98,0.00,,OVC017,0.02,VWS V14.00,2013-05-19 09:44:00,
2013-05-19 05:49:00,62.0,61.4,30.12,ESE,118,0.0,0.0,98,0.00,,OVC017,0.02,VWS V14.00,2013-05-19 09:49:00,
2013-05-19 05:54:00,62.0,61.4,30.12,ESE,118,0.0,0.0,98,0.00,,OVC017,0.02,VWS V14.00,2013-05-19 09:54:00,
2013-05-19 05:59:00,62.0,61.4,30.12,ESE,118,0.0,0.0,98,0.00,,OVC017,0.00,VWS V14.00,2013-05-19 09:59:00,
2013-05-19 06:04:00,62.0,61.4,30.12,SSE,153,0.0,2.7,98,0.00,,OVC017,0.02,VWS V14.00,2013-05-19 10:04:00,
2013-05-19 06:09:00,61.8,61.2,30.12,WNW,294,0.0,0.0,98,0.00,,OVC017,0.02,VWS V14.00,2013-05-19 10:09:00,
2013-05-19 06:14:00,61.8,61.2,30.12,WNW,294,0.0,0.0,98,0.00,,OVC017,0.02,VWS V14.00,2013-05-19 10:14:00,
2013-05-19 06:20:00,62.0,61.4,30.12,WNW,294,0.0,0.0,98,0.00,,OVC017,0.02,VWS V14.00,2013-05-19 10:20:00,
2013-05-19 06:25:00,62.0,61.4,30.12,WNW,294,0.0,0.0,98,0.00,,OVC017,0.02,VWS V14.00,2013-05-19 10:25:00,
2013-05-19 06:30:00,62.0,61.4,30.12,WNW,294,0.0,0.0,98,0.00,,OVC017,0.02,VWS V14.00,2013-05-19 10:30:00,
2013-05-19 06:35:00,62.0,61.4,30.12,WNW,294,0.0,0.0,98,0.00,,OVC017,0.02,VWS V14.00,2013-05-19 10:35:00,
2013-05-19 06:40:00,62.0,61.4,30.12,WNW,294,0.0,0.0,98,0.00,,OVC017,0.02,VWS V14.00,2013-05-19 10:40:00,
2013-05-19 06:45:00,62.0,61.4,30.12,WNW,294,0.0,0.0,98,0.00,,OVC044,0.02,VWS V14.00,2013-05-19 10:45:00,
2013-05-19 06:50:00,62.0,61.4,30.12,WNW,294,0.0,2.7,98,0.00,,OVC044,0.02,VWS V14.00,2013-05-19 10:50:00,
2013-05-19 06:55:00,62.0,61.4,30.12,WNW,294,0.0,0.0,98,0.00,,OVC044,0.02,VWS V14.00,2013-05-19 10:55:00,
2013-05-19 07:00:00,62.0,61.4,30.12,WNW,294,0.0,0.0,98,0.00,,OVC044,0.02,VWS V14.00,2013-05-19 11:00:00,
2013-05-19 07:05:00,62.0,61.4,30.12,WNW,294,0.0,0.0,98,0.00,,OVC055,0.02,VWS V14.00,2013-05-19 11:05:00,
2013-05-19 07:10:00,62.0,61.4,30.12,WNW,294,0.0,0.0,98,0.00,,OVC055,0.02,VWS V14.00,2013-05-19 11:10:00,
2013-05-19 07:16:00,62.2,61.6,30.12,WNW,294,0.0,0.0,98,0.00,,OVC055,0.02,VWS V14.00,2013-05-19 11:16:00,
2013-05-19 07:21:00,62.2,61.6,30.12,WNW,294,0.0,0.0,98,0.00,,OVC055,0.02,VWS V14.00,2013-05-19 11:21:00,
2013-05-19 07:26:00,62.2,61.6,30.12,WNW,294,0.0,0.0,98,0.00,,OVC055,0.02,VWS V14.00,2013-05-19 11:26:00,
2013-05-19 07:31:00,62.2,61.6,30.12,WNW,294,0.0,0.0,98,0.00,,OVC055,0.02,VWS V14.00,2013-05-19 11:31:00,
2013-05-19 07:36:00,62.2,61.6,30.12,WNW,294,0.0,0.0,98,0.00,,OVC055,0.02,VWS V14.00,2013-05-19 11:36:00,
2013-05-19 07:41:00,62.2,61.6,30.12,WNW,294,0.0,0.0,98,0.00,,OVC055,0.02,VWS V14.00,2013-05-19 11:41:00,
2013-05-19 07:46:00,62.2,61.6,30.15,WNW,294,0.0,0.0,98,0.00,,OVC055,0.02,VWS V14.00,2013-05-19 11:46:00,
2013-05-19 07:51:00,62.4,61.8,30.15,WNW,294,0.0,0.0,98,0.00,,OVC055,0.02,VWS V14.00,2013-05-19 11:51:00,
2013-05-19 07:56:00,62.4,61.8,30.15,SSE,160,3.0,3.2,98,0.00,,OVC055,0.02,VWS V14.00,2013-05-19 11:56:00,
2013-05-19 08:01:00,62.4,61.8,30.15,SE,142,0.0,3.8,98,0.00,,OVC110,0.02,VWS V14.00,2013-05-19 12:01:00,
2013-05-19 08:06:00,62.4,61.8,30.15,SE,126,0.0,0.0,98,0.00,,OVC110,0.02,VWS V14.00,2013-05-19 12:06:00,
2013-05-19 08:11:00,62.4,61.8,30.15,SE,126,0.0,0.0,98,0.00,,OVC110,0.02,VWS V14.00,2013-05-19 12:11:00,
2013-05-19 08:17:00,62.4,61.8,30.15,SE,126,0.0,0.0,98,0.00,,OVC110,0.02,VWS V14.00,2013-05-19 12:17:00,
2013-05-19 08:22:00,62.4,61.8,30.15,SE,126,0.0,0.0,98,0.00,,OVC110,0.02,VWS V14.00,2013-05-19 12:22:00,
2013-05-19 08:27:00,62.4,61.8,30.15,SE,126,0.0,0.0,98,0.00,,OVC110,0.02,VWS V14.00,2013-05-19 12:27:00,
2013-05-19 08:32:00,62.5,62.0,30.15,South,185,0.0,3.2,98,0.00,,OVC110,0.02,VWS V14.00,2013-05-19 12:32:00,
2013-05-19 08:37:00,62.5,62.0,30.15,South,185,0.0,0.0,98,0.00,,OVC110,0.02,VWS V14.00,2013-05-19 12:37:00,
2013-05-19 08:42:00,62.7,62.2,30.15,SE,132,3.9,4.3,98,0.00,,OVC110,0.02,VWS V14.00,2013-05-19 12:42:00,
2013-05-19 08:47:00,62.7,62.2,30.15,South,176,0.0,2.7,98,0.00,,OVC110,0.02,VWS V14.00,2013-05-19 12:47:00,
2013-05-19 08:52:00,62.9,62.3,30.15,South,188,0.0,0.0,98,0.00,,OVC110,0.02,VWS V14.00,2013-05-19 12:52:00,
2013-05-19 08:57:00,63.1,62.5,30.15,SSW,207,0.0,0.0,98,0.00,,OVC110,0.02,VWS V14.00,2013-05-19 12:57:00,
2013-05-19 09:03:00,63.3,62.7,30.15,SSW,207,0.0,0.0,98,0.00,,OVC100,0.02,VWS V14.00,2013-05-19 13:03:00,
2013-05-19 09:08:00,63.5,62.9,30.15,South,169,2.5,3.2,98,0.00,,OVC100,0.02,VWS V14.00,2013-05-19 13:08:00,
2013-05-19 09:13:00,63.7,63.1,30.15,South,176,3.4,4.3,98,0.00,,OVC100,0.02,VWS V14.00,2013-05-19 13:13:00,
2013-05-19 09:18:00,63.7,63.1,30.15,SSW,209,0.0,2.7,98,0.00,,OVC100,0.02,VWS V14.00,2013-05-19 13:18:00,
2013-05-19 09:23:00,63.7,63.1,30.15,SW,234,0.0,4.3,98,0.00,,OVC100,0.02,VWS V14.00,2013-05-19 13:23:00,
2013-05-19 09:28:00,63.8,63.3,30.15,SSE,162,0.0,2.7,98,0.00,,OVC100,0.02,VWS V14.00,2013-05-19 13:28:00,
2013-05-19 09:33:00,64.0,63.2,30.15,SSE,165,0.0,3.2,97,0.00,,OVC100,0.02,VWS V14.00,2013-05-19 13:33:00,
2013-05-19 09:38:00,64.0,63.2,30.15,SSE,165,3.0,3.2,97,0.00,,OVC100,0.02,VWS V14.00,2013-05-19 13:38:00,
2013-05-19 09:43:00,64.2,63.1,30.15,SSE,165,0.0,0.0,96,0.00,,OVC100,0.02,VWS V14.00,2013-05-19 13:43:00,
2013-05-19 09:48:00,64.4,63.2,30.15,ESE,110,3.9,4.3,96,0.00,,OVC028,0.02,VWS V14.00,2013-05-19 13:48:00,
2013-05-19 09:53:00,64.6,63.1,30.15,SSW,207,3.9,4.8,95,0.00,,OVC028,0.02,VWS V14.00,2013-05-19 13:53:00,
2013-05-19 09:58:00,64.8,63.0,30.15,SSE,163,5.9,6.4,94,0.00,,OVC028,0.02,VWS V14.00,2013-05-19 13:58:00,
2013-05-19 10:03:00,64.8,62.7,30.15,SE,139,0.0,3.2,93,0.00,,OVC026,0.02,VWS V14.00,2013-05-19 14:03:00,
2013-05-19 10:08:00,64.6,62.2,30.15,SE,125,0.0,0.0,92,0.00,,OVC026,0.02,VWS V14.00,2013-05-19 14:08:00,
2013-05-19 10:14:00,64.6,62.2,30.15,SSE,166,0.0,2.7,92,0.00,,OVC026,0.02,VWS V14.00,2013-05-19 14:14:00,
2013-05-19 10:19:00,64.4,62.0,30.15,SSE,166,0.0,0.0,92,0.00,,OVC026,0.02,VWS V14.00,2013-05-19 14:19:00,
2013-05-19 10:24:00,64.4,61.7,30.15,SSE,166,0.0,3.8,91,0.00,,OVC026,0.02,VWS V14.00,2013-05-19 14:24:00,
2013-05-19 10:29:00,64.4,61.7,30.15,South,171,0.0,3.2,91,0.00,,OVC026,0.02,VWS V14.00,2013-05-19 14:29:00,
2013-05-19 10:34:00,64.4,61.7,30.15,SSE,162,4.4,4.8,91,0.00,,OVC026,0.02,VWS V14.00,2013-05-19 14:34:00,
2013-05-19 10:39:00,64.4,61.7,30.15,SSW,194,0.0,2.7,91,0.00,,OVC026,0.02,VWS V14.00,2013-05-19 14:39:00,
2013-05-19 10:44:00,64.4,61.7,30.15,SSW,194,0.0,0.0,91,0.00,,OVC026,0.02,VWS V14.00,2013-05-19 14:44:00,
2013-05-19 10:49:00,64.4,61.7,30.15,SSW,194,2.5,3.2,91,0.00,,OVC026,0.02,VWS V14.00,2013-05-19 14:49:00,
2013-05-19 10:55:00,64.6,62.2,30.15,South,171,4.4,7.0,92,0.00,,OVC026,0.02,VWS V14.00,2013-05-19 14:55:00,
2013-05-19 11:00:00,64.6,62.2,30.15,SSE,150,2.5,3.2,92,0.00,,OVC026,0.02,VWS V14.00,2013-05-19 15:00:00,
2013-05-19 11:05:00,64.6,61.9,30.15,SSE,148,0.0,2.7,91,0.00,,OVC038,0.02,VWS V14.00,2013-05-19 15:05:00,
2013-05-19 11:10:00,64.6,62.2,30.15,SSE,157,3.0,3.2,92,0.00,,OVC038,0.02,VWS V14.00,2013-05-19 15:10:00,
2013-05-19 11:15:00,64.6,62.2,30.15,SSW,195,3.0,3.8,92,0.01,,OVC038,0.03,VWS V14.00,2013-05-19 15:15:00,
2013-05-19 11:20:00,64.4,62.0,30.15,SSE,160,4.4,4.8,92,0.01,,OVC038,0.03,VWS V14.00,2013-05-19 15:20:00,
2013-05-19 11:25:00,64.4,62.0,30.15,SE,140,0.0,4.3,92,0.01,,OVC038,0.03,VWS V14.00,2013-05-19 15:25:00,
2013-05-19 11:30:00,64.4,62.3,30.15,SSE,150,0.0,0.0,93,0.01,,OVC038,0.03,VWS V14.00,2013-05-19 15:30:00,
2013-05-19 11:35:00,64.4,62.6,30.15,SSW,207,2.5,3.2,94,0.01,,OVC038,0.03,VWS V14.00,2013-05-19 15:35:00,
2013-05-19 11:40:00,64.4,63.0,30.15,SSE,165,0.0,0.0,95,0.01,,OVC038,0.03,VWS V14.00,2013-05-19 15:40:00,
2013-05-19 11:45:00,64.4,63.0,30.15,SSE,165,0.0,0.0,95,0.01,,OVC038,0.03,VWS V14.00,2013-05-19 15:45:00,
2013-05-19 11:51:00,64.4,63.2,30.15,SSE,165,0.0,0.0,96,0.01,,OVC038,0.03,VWS V14.00,2013-05-19 15:51:00,
2013-05-19 11:56:00,64.4,63.2,30.15,SSE,154,3.0,3.2,96,0.01,,OVC038,0.03,VWS V14.00,2013-05-19 15:56:00,
2013-05-19 12:01:00,64.4,63.2,30.15,SSE,149,3.4,3.8,96,0.02,,OVC038,0.04,VWS V14.00,2013-05-19 16:01:00,
2013-05-19 12:06:00,64.4,63.2,30.15,SE,142,0.0,0.0,96,0.02,,OVC075,0.04,VWS V14.00,2013-05-19 16:06:00,
2013-05-19 12:11:00,64.4,63.2,30.15,SE,142,0.0,0.0,96,0.02,,OVC075,0.04,VWS V14.00,2013-05-19 16:11:00,
2013-05-19 12:16:00,64.4,63.2,30.15,SE,142,0.0,0.0,96,0.01,,OVC075,0.04,VWS V14.00,2013-05-19 16:16:00,
2013-05-19 12:21:00,64.4,63.5,30.15,SE,142,0.0,0.0,97,0.01,,OVC075,0.04,VWS V14.00,2013-05-19 16:21:00,
2013-05-19 12:26:00,64.6,63.7,30.15,SE,142,0.0,0.0,97,0.01,,OVC075,0.04,VWS V14.00,2013-05-19 16:26:00,
2013-05-19 12:31:00,64.6,63.7,30.15,SW,229,0.0,0.0,97,0.01,,OVC075,0.04,VWS V14.00,2013-05-19 16:31:00,
2013-05-19 12:36:00,64.4,63.5,30.15,NW,306,0.0,0.0,97,0.01,,OVC075,0.04,VWS V14.00,2013-05-19 16:36:00,
2013-05-19 12:41:00,64.4,63.8,30.15,NW,322,3.4,3.8,98,0.01,,OVC075,0.04,VWS V14.00,2013-05-19 16:41:00,
2013-05-19 12:46:00,64.4,63.8,30.15,NW,322,0.0,2.7,98,0.01,,OVC075,0.04,VWS V14.00,2013-05-19 16:46:00,
2013-05-19 12:51:00,64.6,64.0,30.12,NW,322,0.0,0.0,98,0.01,,OVC075,0.04,VWS V14.00,2013-05-19 16:51:00,
2013-05-19 12:57:00,64.8,64.2,30.12,NW,322,0.0,0.0,98,0.01,,OVC075,0.04,VWS V14.00,2013-05-19 16:57:00,
2013-05-19 13:01:00,65.0,64.4,30.12,NW,322,0.0,0.0,98,0.00,,BKN033,0.04,VWS V14.00,2013-05-19 17:01:00,
2013-05-19 13:07:00,64.8,64.2,30.12,NW,322,0.0,0.0,98,0.00,,BKN033,0.04,VWS V14.00,2013-05-19 17:07:00,
2013-05-19 13:12:00,65.0,64.4,30.12,NW,322,3.0,3.8,98,0.00,,BKN033,0.04,VWS V14.00,2013-05-19 17:12:00,
2013-05-19 13:17:00,65.0,64.4,30.12,NW,322,0.0,0.0,98,0.00,,BKN033,0.04,VWS V14.00,2013-05-19 17:17:00,
2013-05-19 13:22:00,65.0,64.4,30.12,NW,322,0.0,0.0,98,0.00,,BKN033,0.04,VWS V14.00,2013-05-19 17:22:00,
2013-05-19 13:27:00,65.2,64.6,30.12,NNW,341,0.0,0.0,98,0.00,,BKN033,0.04,VWS V14.00,2013-05-19 17:27:00,
2013-05-19 13:32:00,65.2,64.6,30.12,NNW,341,0.0,0.0,98,0.00,,BKN033,0.04,VWS V14.00,2013-05-19 17:32:00,
2013-05-19 13:37:00,65.2,64.6,30.12,NNW,341,0.0,0.0,98,0.00,,BKN033,0.04,VWS V14.00,2013-05-19 17:37:00,
2013-05-19 13:42:00,65.2,64.6,30.12,NNW,341,0.0,2.7,98,0.00,,BKN033,0.04,VWS V14.00,2013-05-19 17:42:00,
2013-05-19 13:47:00,65.3,64.8,30.12,NNW,341,0.0,0.0,98,0.00,,BKN037,0.04,VWS V14.00,2013-05-19 17:47:00,
2013-05-19 13:52:00,65.3,64.8,30.12,NNW,341,0.0,0.0,98,0.00,,BKN037,0.04,VWS V14.00,2013-05-19 17:52:00,
2013-05-19 13:57:00,65.3,64.8,30.12,SE,124,0.0,0.0,98,0.00,,BKN037,0.04,VWS V14.00,2013-05-19 17:57:00,
2013-05-19 14:03:00,65.3,64.8,30.12,South,179,3.0,3.2,98,0.00,,SCT080,0.04,VWS V14.00,2013-05-19 18:03:00,
2013-05-19 14:08:00,65.3,64.5,30.12,SE,138,3.0,3.2,97,0.00,,SCT080,0.04,VWS V14.00,2013-05-19 18:08:00,
2013-05-19 14:13:00,65.3,64.2,30.12,SSE,159,3.4,3.8,96,0.00,,SCT080,0.04,VWS V14.00,2013-05-19 18:13:00,
2013-05-19 14:18:00,65.3,63.9,30.12,South,179,3.0,6.4,95,0.00,,SCT080,0.04,VWS V14.00,2013-05-19 18:18:00,
2013-05-19 14:23:00,65.3,63.6,30.12,SSW,205,3.0,3.2,94,0.00,,SCT080,0.04,VWS V14.00,2013-05-19 18:23:00,
2013-05-19 14:28:00,65.3,63.6,30.12,South,181,0.0,2.7,94,0.00,,SCT080,0.04,VWS V14.00,2013-05-19 18:28:00,
2013-05-19 14:33:00,65.3,63.3,30.12,SSW,194,0.0,0.0,93,0.00,,SCT080,0.04,VWS V14.00,2013-05-19 18:33:00,
2013-05-19 14:38:00,65.7,63.6,30.12,SE,127,4.4,5.9,93,0.00,,SCT080,0.04,VWS V14.00,2013-05-19 18:38:00,
2013-05-19 14:43:00,65.7,63.9,30.12,SE,145,3.9,4.3,94,0.00,,SCT080,0.04,VWS V14.00,2013-05-19 18:43:00,
2013-05-19 14:49:00,65.9,63.8,30.09,South,180,0.0,2.7,93,0.00,,SCT080,0.04,VWS V14.00,2013-05-19 18:49:00,
2013-05-19 14:54:00,65.7,63.3,30.09,East,89,0.0,3.2,92,0.00,,SCT080,0.04,VWS V14.00,2013-05-19 18:54:00,
2013-05-19 14:59:00,65.7,63.3,30.09,South,174,2.5,4.8,92,0.00,,SCT080,0.04,VWS V14.00,2013-05-19 18:59:00,
2013-05-19 15:04:00,65.7,63.3,30.09,East,94,0.0,2.7,92,0.00,,BKN050,0.04,VWS V14.00,2013-05-19 19:04:00,
2013-05-19 15:09:00,65.9,63.8,30.09,South,174,0.0,7.5,93,0.00,,BKN050,0.04,VWS V14.00,2013-05-19 19:09:00,
2013-05-19 15:14:00,66.3,63.9,30.09,SSE,166,4.4,7.5,92,0.00,,BKN050,0.04,VWS V14.00,2013-05-19 19:14:00,
2013-05-19 15:19:00,66.3,64.2,30.09,South,171,0.0,0.0,93,0.00,,BKN050,0.04,VWS V14.00,2013-05-19 19:19:00,
2013-05-19 15:24:00,66.1,63.7,30.09,SE,126,2.5,3.2,92,0.00,,BKN050,0.04,VWS V14.00,2013-05-19 19:24:00,
2013-05-19 15:29:00,66.1,63.4,30.09,SSE,149,8.9,9.9,91,0.00,,BKN050,0.04,VWS V14.00,2013-05-19 19:29:00,
2013-05-19 15:34:00,66.1,63.1,30.09,NW,312,0.0,7.0,90,0.00,,BKN050,0.04,VWS V14.00,2013-05-19 19:34:00,
2013-05-19 15:39:00,66.1,63.1,30.09,ENE,59,0.0,0.0,90,0.00,,BKN050,0.04,VWS V14.00,2013-05-19 19:39:00,
2013-05-19 15:45:00,65.9,62.9,30.09,ESE,103,0.0,5.9,90,0.00,,BKN050,0.04,VWS V14.00,2013-05-19 19:45:00,
2013-05-19 15:49:00,65.7,62.4,30.12,NNE,17,0.0,3.2,89,0.00,,BKN050,0.04,VWS V14.00,2013-05-19 19:49:00,
2013-05-19 15:55:00,65.9,62.9,30.12,ESE,112,2.5,2.7,90,0.00,,BKN050,0.04,VWS V14.00,2013-05-19 19:55:00,
2013-05-19 16:00:00,65.9,62.9,30.12,ESE,118,0.0,0.0,90,0.00,,BKN050,0.04,VWS V14.00,2013-05-19 20:00:00,
2013-05-19 16:05:00,65.9,62.9,30.09,East,90,0.0,0.0,90,0.00,,OVC055,0.04,VWS V14.00,2013-05-19 20:05:00,
2013-05-19 16:10:00,66.1,63.1,30.09,ESE,111,0.0,5.9,90,0.00,,OVC055,0.04,VWS V14.00,2013-05-19 20:10:00,
2013-05-19 16:15:00,66.1,63.4,30.09,SSE,166,5.4,5.9,91,0.00,,OVC055,0.04,VWS V14.00,2013-05-19 20:15:00,
2013-05-19 16:20:00,66.3,63.6,30.09,SSE,160,0.0,3.2,91,0.00,,OVC055,0.04,VWS V14.00,2013-05-19 20:20:00,
2013-05-19 16:25:00,66.3,62.9,30.09,SE,135,3.0,5.9,89,0.00,,OVC055,0.04,VWS V14.00,2013-05-19 20:25:00,
2013-05-19 16:30:00,66.4,63.1,30.09,SSE,154,3.4,3.8,89,0.00,,OVC055,0.04,VWS V14.00,2013-05-19 20:30:00,
2013-05-19 16:35:00,66.4,62.8,30.09,ENE,77,3.0,3.2,88,0.00,,RA,0.04,VWS V14.00,2013-05-19 20:35:00,
2013-05-19 16:40:00,66.4,63.1,30.09,South,172,3.0,4.3,89,0.00,,RA,0.04,VWS V14.00,2013-05-19 20:40:00,
2013-05-19 16:45:00,66.6,63.3,30.09,SE,130,0.0,3.2,89,0.00,,RA,0.04,VWS V14.00,2013-05-19 20:45:00,
2013-05-19 16:50:00,66.6,63.3,30.09,SE,136,0.0,2.7,89,0.00,,RA,0.04,VWS V14.00,2013-05-19 20:50:00,
2013-05-19 16:55:00,66.4,62.8,30.09,SE,135,2.5,2.7,88,0.00,,RA,0.04,VWS V14.00,2013-05-19 20:55:00,
2013-05-19 17:01:00,66.4,62.8,30.09,SSE,153,3.0,3.8,88,0.00,,RA,0.04,VWS V14.00,2013-05-19 21:01:00,
2013-05-19 17:06:00,66.6,63.0,30.09,SE,140,3.0,6.4,88,0.00,,-RA,0.04,VWS V14.00,2013-05-19 21:06:00,
2013-05-19 17:11:00,66.6,62.6,30.09,SSW,200,3.9,7.5,87,0.00,,-RA,0.04,VWS V14.00,2013-05-19 21:11:00,
2013-05-19 17:16:00,66.6,62.6,30.09,SSE,163,3.4,3.8,87,0.00,,-RA,0.04,VWS V14.00,2013-05-19 21:16:00,
2013-05-19 17:21:00,66.6,62.6,30.09,SSW,195,3.9,4.3,87,0.00,,-RA,0.04,VWS V14.00,2013-05-19 21:21:00,
2013-05-19 17:26:00,66.6,62.3,30.09,SSW,195,2.5,3.2,86,0.00,,-RA,0.04,VWS V14.00,2013-05-19 21:26:00,
2013-05-19 17:31:00,66.6,62.3,30.09,SSW,192,3.0,3.2,86,0.00,,-RA,0.04,VWS V14.00,2013-05-19 21:31:00,
2013-05-19 17:36:00,66.8,62.8,30.09,South,181,0.0,3.8,87,0.00,,-RA,0.04,VWS V14.00,2013-05-19 21:36:00,
2013-05-19 17:41:00,66.6,62.6,30.09,SE,140,3.0,3.2,87,0.00,,-RA,0.04,VWS V14.00,2013-05-19 21:41:00,
2013-05-19 17:46:00,66.6,62.6,30.09,South,181,0.0,0.0,87,0.00,,-RA,0.04,VWS V14.00,2013-05-19 21:46:00,
2013-05-19 17:51:00,66.6,62.3,30.09,SE,146,3.4,4.3,86,0.00,,-RA,0.04,VWS V14.00,2013-05-19 21:51:00,
2013-05-19 17:56:00,66.4,62.1,30.09,SSE,162,3.4,3.8,86,0.00,,-RA,0.04,VWS V14.00,2013-05-19 21:56:00,
2013-05-19 18:01:00,66.3,62.0,30.09,South,185,0.0,0.0,86,0.00,,-RA,0.04,VWS V14.00,2013-05-19 22:01:00,
2013-05-19 18:07:00,66.1,61.8,30.09,South,175,0.0,0.0,86,0.00,,-RA,0.04,VWS V14.00,2013-05-19 22:07:00,
2013-05-19 18:12:00,66.1,62.1,30.09,South,175,0.0,0.0,87,0.00,,-RA,0.04,VWS V14.00,2013-05-19 22:12:00,
2013-05-19 18:17:00,66.1,62.4,30.09,South,174,0.0,0.0,88,0.00,,-RA,0.04,VWS V14.00,2013-05-19 22:17:00,
2013-05-19 18:22:00,65.9,62.2,30.09,South,174,0.0,0.0,88,0.00,,-RA,0.04,VWS V14.00,2013-05-19 22:22:00,
2013-05-19 18:27:00,65.7,62.1,30.09,South,174,0.0,0.0,88,0.00,,-RA,0.04,VWS V14.00,2013-05-19 22:27:00,
2013-05-19 18:32:00,65.7,62.4,30.09,South,174,0.0,0.0,89,0.00,,-RA,0.04,VWS V14.00,2013-05-19 22:32:00,
2013-05-19 18:37:00,65.5,62.2,30.09,South,174,0.0,0.0,89,0.00,,-RA,0.04,VWS V14.00,2013-05-19 22:37:00,
2013-05-19 18:42:00,65.5,62.2,30.09,South,174,0.0,0.0,89,0.00,,-RA,0.04,VWS V14.00,2013-05-19 22:42:00,
2013-05-19 18:47:00,65.3,62.3,30.09,South,174,0.0,0.0,90,0.00,,-RA,0.04,VWS V14.00,2013-05-19 22:47:00,
2013-05-19 18:52:00,65.3,62.3,30.09,South,174,0.0,0.0,90,0.00,,-RA,0.04,VWS V14.00,2013-05-19 22:52:00,
2013-05-19 18:57:00,65.3,62.6,30.09,South,174,0.0,0.0,91,0.00,,-RA,0.04,VWS V14.00,2013-05-19 22:57:00,
2013-05-19 19:02:00,65.3,62.6,30.09,South,174,0.0,0.0,91,0.00,,FEW060,0.04,VWS V14.00,2013-05-19 23:02:00,
2013-05-19 19:07:00,65.3,63.0,30.09,South,174,0.0,0.0,92,0.00,,FEW060,0.04,VWS V14.00,2013-05-19 23:07:00,
2013-05-19 19:13:00,65.3,63.0,30.09,WNW,302,3.9,4.3,92,0.00,,FEW060,0.04,VWS V14.00,2013-05-19 23:13:00,
2013-05-19 19:17:00,65.3,62.6,30.09,South,180,0.0,0.0,91,0.00,,FEW060,0.04,VWS V14.00,2013-05-19 23:17:00,
2013-05-19 19:22:00,65.3,63.0,30.09,South,180,0.0,0.0,92,0.00,,FEW060,0.04,VWS V14.00,2013-05-19 23:22:00,
2013-05-19 19:27:00,65.2,62.8,30.09,South,180,0.0,0.0,92,0.00,,FEW060,0.04,VWS V14.00,2013-05-19 23:27:00,
2013-05-19 19:33:00,65.2,63.1,30.09,South,170,0.0,0.0,93,0.00,,FEW060,0.04,VWS V14.00,2013-05-19 23:33:00,
2013-05-19 19:38:00,65.2,63.1,30.09,South,170,0.0,0.0,93,0.00,,FEW060,0.04,VWS V14.00,2013-05-19 23:38:00,
2013-05-19 19:43:00,65.2,63.1,30.09,South,170,0.0,0.0,93,0.00,,FEW060,0.04,VWS V14.00,2013-05-19 23:43:00,
2013-05-19 19:48:00,65.0,62.9,30.09,South,170,0.0,0.0,93,0.00,,FEW060,0.04,VWS V14.00,2013-05-19 23:48:00,
2013-05-19 19:53:00,64.8,62.7,30.09,South,170,0.0,0.0,93,0.00,,FEW060,0.04,VWS V14.00,2013-05-19 23:53:00,
2013-05-19 19:58:00,65.0,62.9,30.09,South,170,0.0,0.0,93,0.00,,FEW060,0.04,VWS V14.00,2013-05-19 23:58:00,
2013-05-19 20:03:00,64.8,62.7,30.09,South,170,0.0,0.0,93,0.00,,CLR,0.04,VWS V14.00,2013-05-20 00:03:00,
2013-05-19 20:08:00,64.8,62.7,30.09,South,170,0.0,0.0,93,0.00,,CLR,0.04,VWS V14.00,2013-05-20 00:08:00,
2013-05-19 20:13:00,64.6,62.8,30.09,South,170,0.0,0.0,94,0.00,,CLR,0.04,VWS V14.00,2013-05-20 00:13:00,
2013-05-19 20:18:00,64.6,62.8,30.09,South,170,0.0,0.0,94,0.00,,CLR,0.04,VWS V14.00,2013-05-20 00:18:00,
2013-05-19 20:23:00,64.6,63.1,30.09,South,170,0.0,0.0,95,0.00,,CLR,0.04,VWS V14.00,2013-05-20 00:23:00,
2013-05-19 20:28:00,64.4,63.0,30.09,South,170,0.0,0.0,95,0.00,,CLR,0.04,VWS V14.00,2013-05-20 00:28:00,
2013-05-19 20:33:00,64.4,63.2,30.09,South,170,0.0,0.0,96,0.00,,CLR,0.04,VWS V14.00,2013-05-20 00:33:00,
2013-05-19 20:38:00,64.4,63.2,30.09,South,170,0.0,0.0,96,0.00,,CLR,0.04,VWS V14.00,2013-05-20 00:38:00,
2013-05-19 20:43:00,64.4,63.2,30.09,South,170,0.0,0.0,96,0.00,,CLR,0.04,VWS V14.00,2013-05-20 00:43:00,
2013-05-19 20:49:00,64.4,63.2,30.09,South,170,0.0,0.0,96,0.00,,CLR,0.04,VWS V14.00,2013-05-20 00:49:00,
2013-05-19 20:54:00,64.4,63.2,30.09,South,170,0.0,0.0,96,0.00,,CLR,0.04,VWS V14.00,2013-05-20 00:54:00,
2013-05-19 20:59:00,64.4,63.2,30.09,South,170,0.0,0.0,96,0.00,,CLR,0.04,VWS V14.00,2013-05-20 00:59:00,
2013-05-19 21:04:00,64.4,63.2,30.09,South,170,0.0,0.0,96,0.00,,FEW020,0.04,VWS V14.00,2013-05-20 01:04:00,
2013-05-19 21:09:00,64.4,63.2,30.09,South,170,0.0,0.0,96,0.00,,FEW020,0.04,VWS V14.00,2013-05-20 01:09:00,
2013-05-19 21:14:00,64.2,63.1,30.09,South,170,0.0,0.0,96,0.00,,FEW020,0.04,VWS V14.00,2013-05-20 01:14:00,
2013-05-19 21:19:00,64.2,63.1,30.09,South,170,0.0,0.0,96,0.00,,FEW020,0.04,VWS V14.00,2013-05-20 01:19:00,
2013-05-19 21:24:00,64.4,63.2,30.09,South,170,0.0,0.0,96,0.00,,FEW020,0.04,VWS V14.00,2013-05-20 01:24:00,
2013-05-19 21:29:00,64.4,63.2,30.09,South,170,0.0,0.0,96,0.00,,FEW020,0.04,VWS V14.00,2013-05-20 01:29:00,
2013-05-19 21:34:00,64.4,63.2,30.12,South,170,0.0,0.0,96,0.00,,FEW020,0.04,VWS V14.00,2013-05-20 01:34:00,
2013-05-19 21:39:00,64.4,63.2,30.12,South,170,0.0,0.0,96,0.00,,FEW020,0.04,VWS V14.00,2013-05-20 01:39:00,
2013-05-19 21:44:00,64.4,63.2,30.12,ESE,117,0.0,0.0,96,0.00,,FEW020,0.04,VWS V14.00,2013-05-20 01:44:00,
2013-05-19 21:49:00,64.4,63.2,30.12,ESE,117,0.0,0.0,96,0.00,,FEW020,0.04,VWS V14.00,2013-05-20 01:49:00,
2013-05-19 21:54:00,64.2,63.1,30.12,ESE,117,0.0,0.0,96,0.00,,FEW020,0.04,VWS V14.00,2013-05-20 01:54:00,
2013-05-19 22:00:00,64.2,63.1,30.12,ESE,117,0.0,0.0,96,0.00,,FEW020,0.04,VWS V14.00,2013-05-20 02:00:00,
2013-05-19 22:05:00,64.2,63.1,30.12,ESE,117,0.0,0.0,96,0.00,,SCT042,0.04,VWS V14.00,2013-05-20 02:05:00,
2013-05-19 22:10:00,64.2,63.1,30.12,ESE,117,0.0,0.0,96,0.00,,SCT042,0.04,VWS V14.00,2013-05-20 02:10:00,
2013-05-19 22:15:00,64.0,62.9,30.12,ESE,117,0.0,0.0,96,0.00,,SCT042,0.04,VWS V14.00,2013-05-20 02:15:00,
2013-05-19 22:20:00,64.2,63.3,30.12,ESE,117,0.0,0.0,97,0.00,,SCT042,0.04,VWS V14.00,2013-05-20 02:20:00,
2013-05-19 22:25:00,64.2,63.3,30.12,ESE,117,0.0,0.0,97,0.00,,SCT042,0.04,VWS V14.00,2013-05-20 02:25:00,
2013-05-19 22:30:00,64.0,63.2,30.12,ESE,117,0.0,0.0,97,0.00,,SCT042,0.04,VWS V14.00,2013-05-20 02:30:00,
2013-05-19 22:35:00,64.0,63.2,30.12,ESE,117,0.0,0.0,97,0.00,,SCT042,0.04,VWS V14.00,2013-05-20 02:35:00,
2013-05-19 22:40:00,64.0,63.2,30.12,ESE,117,0.0,0.0,97,0.00,,SCT042,0.04,VWS V14.00,2013-05-20 02:40:00,
2013-05-19 22:45:00,64.0,63.2,30.12,ESE,117,0.0,0.0,97,0.00,,SCT042,0.04,VWS V14.00,2013-05-20 02:45:00,
2013-05-19 22:51:00,64.0,63.2,30.12,ESE,117,0.0,0.0,97,0.00,,SCT042,0.04,VWS V14.00,2013-05-20 02:51:00,
2013-05-19 22:56:00,63.8,63.3,30.12,ESE,117,0.0,0.0,98,0.00,,SCT042,0.04,VWS V14.00,2013-05-20 02:56:00,
2013-05-19 23:01:00,64.0,63.5,30.12,ESE,117,0.0,0.0,98,0.00,,SCT042,0.04,VWS V14.00,2013-05-20 03:01:00,
2013-05-19 23:06:00,64.0,63.5,30.12,ESE,117,0.0,0.0,98,0.00,,CLR,0.04,VWS V14.00,2013-05-20 03:06:00,
2013-05-19 23:11:00,64.0,63.5,30.12,ESE,117,0.0,0.0,98,0.00,,CLR,0.04,VWS V14.00,2013-05-20 03:11:00,
2013-05-19 23:16:00,63.8,63.3,30.12,ESE,117,0.0,0.0,98,0.00,,CLR,0.04,VWS V14.00,2013-05-20 03:16:00,
2013-05-19 23:21:00,63.8,63.3,30.12,ESE,117,0.0,0.0,98,0.00,,CLR,0.04,VWS V14.00,2013-05-20 03:21:00,
2013-05-19 23:26:00,63.8,63.3,30.12,ESE,117,0.0,0.0,98,0.00,,CLR,0.04,VWS V14.00,2013-05-20 03:26:00,
2013-05-19 23:31:00,63.8,63.3,30.12,ESE,117,0.0,0.0,98,0.00,,CLR,0.04,VWS V14.00,2013-05-20 03:31:00,
2013-05-19 23:36:00,63.8,63.3,30.12,ESE,117,0.0,0.0,98,0.00,,CLR,0.04,VWS V14.00,2013-05-20 03:36:00,
2013-05-19 23:41:00,63.8,63.3,30.12,ESE,117,0.0,0.0,98,0.00,,CLR,0.04,VWS V14.00,2013-05-20 03:41:00,
2013-05-19 23:46:00,63.8,63.3,30.12,ESE,117,0.0,0.0,98,0.00,,CLR,0.04,VWS V14.00,2013-05-20 03:46:00,
2013-05-19 23:51:00,63.8,63.3,30.12,ESE,117,0.0,0.0,98,0.00,,CLR,0.04,VWS V14.00,2013-05-20 03:51:00,
2013-05-19 23:57:00,63.8,63.3,30.12,ESE,117,0.0,0.0,98,0.00,,CLR,0.04,VWS V14.00,2013-05-20 03:57:00,